sensor_id;sensor_type;location;lat;lon;timestamp;P1;durP1;ratioP1;P2;durP2;ratioP2
1775;SDS011;885;42.626;23.200;2023-05-21T00:00:11;12.97;;;10.97;;
1775;SDS011;885;42.626;23.200;2023-05-21T00:02:38;13.60;;;12.13;;
1775;SDS011;885;42.626;23.200;2023-05-21T00:05:05;12.50;;;11.30;;
1775;SDS011;885;42.626;23.200;2023-05-21T00:07:35;15.77;;;11.93;;
1775;SDS011;885;42.626;23.200;2023-05-21T00:10:04;13.20;;;11.80;;
1775;SDS011;885;42.626;23.200;2023-05-21T00:12:31;11.77;;;9.33;;
1775;SDS011;885;42.626;23.200;2023-05-21T00:14:58;13.30;;;11.30;;
1775;SDS011;885;42.626;23.200;2023-05-21T00:17:26;11.80;;;10.70;;
1775;SDS011;885;42.626;23.200;2023-05-21T00:19:53;12.33;;;10.07;;
1775;SDS011;885;42.626;23.200;2023-05-21T00:22:21;14.23;;;10.07;;
1775;SDS011;885;42.626;23.200;2023-05-21T00:24:47;10.10;;;9.10;;
1775;SDS011;885;42.626;23.200;2023-05-21T00:27:16;12.43;;;11.13;;
1775;SDS011;885;42.626;23.200;2023-05-21T00:29:42;13.53;;;10.47;;
1775;SDS011;885;42.626;23.200;2023-05-21T00:32:09;9.50;;;8.50;;
1775;SDS011;885;42.626;23.200;2023-05-21T00:34:36;9.20;;;7.90;;
1775;SDS011;885;42.626;23.200;2023-05-21T00:37:03;9.20;;;8.20;;
1775;SDS011;885;42.626;23.200;2023-05-21T00:39:30;11.67;;;9.53;;
1775;SDS011;885;42.626;23.200;2023-05-21T00:41:56;8.70;;;7.77;;
1775;SDS011;885;42.626;23.200;2023-05-21T00:44:25;8.37;;;7.43;;
1775;SDS011;885;42.626;23.200;2023-05-21T00:46:58;7.87;;;6.40;;
1775;SDS011;885;42.626;23.200;2023-05-21T00:49:26;7.90;;;6.63;;
1775;SDS011;885;42.626;23.200;2023-05-21T00:51:53;8.83;;;7.00;;
1775;SDS011;885;42.626;23.200;2023-05-21T00:54:21;9.03;;;7.60;;
1775;SDS011;885;42.626;23.200;2023-05-21T00:56:49;8.83;;;7.97;;
1775;SDS011;885;42.626;23.200;2023-05-21T00:59:17;13.07;;;8.30;;
1775;SDS011;885;42.626;23.200;2023-05-21T01:01:45;9.70;;;8.70;;
1775;SDS011;885;42.626;23.200;2023-05-21T01:04:18;9.67;;;8.63;;
1775;SDS011;885;42.626;23.200;2023-05-21T01:06:45;9.57;;;8.63;;
1775;SDS011;885;42.626;23.200;2023-05-21T01:09:12;9.90;;;8.17;;
1775;SDS011;885;42.626;23.200;2023-05-21T01:11:39;11.10;;;8.47;;
1775;SDS011;885;42.626;23.200;2023-05-21T01:14:09;12.30;;;10.37;;
1775;SDS011;885;42.626;23.200;2023-05-21T01:16:37;10.50;;;9.40;;
1775;SDS011;885;42.626;23.200;2023-05-21T01:19:08;10.93;;;9.83;;
1775;SDS011;885;42.626;23.200;2023-05-21T01:21:40;10.20;;;9.13;;
1775;SDS011;885;42.626;23.200;2023-05-21T01:24:10;9.83;;;8.83;;
1775;SDS011;885;42.626;23.200;2023-05-21T01:26:37;9.73;;;8.07;;
1775;SDS011;885;42.626;23.200;2023-05-21T01:29:06;11.90;;;9.30;;
1775;SDS011;885;42.626;23.200;2023-05-21T01:31:39;11.83;;;8.40;;
1775;SDS011;885;42.626;23.200;2023-05-21T01:34:13;10.43;;;8.67;;
1775;SDS011;885;42.626;23.200;2023-05-21T01:36:42;10.83;;;8.50;;
1775;SDS011;885;42.626;23.200;2023-05-21T01:39:16;9.87;;;8.97;;
1775;SDS011;885;42.626;23.200;2023-05-21T01:41:51;10.23;;;9.20;;
1775;SDS011;885;42.626;23.200;2023-05-21T01:44:22;11.60;;;9.43;;
1775;SDS011;885;42.626;23.200;2023-05-21T01:46:51;9.90;;;8.90;;
1775;SDS011;885;42.626;23.200;2023-05-21T01:49:22;9.60;;;8.73;;
1775;SDS011;885;42.626;23.200;2023-05-21T01:51:51;9.20;;;8.00;;
1775;SDS011;885;42.626;23.200;2023-05-21T01:54:20;10.17;;;8.83;;
1775;SDS011;885;42.626;23.200;2023-05-21T01:56:48;10.43;;;8.70;;
1775;SDS011;885;42.626;23.200;2023-05-21T01:59:14;9.53;;;8.60;;
1775;SDS011;885;42.626;23.200;2023-05-21T02:01:44;10.07;;;8.40;;
1775;SDS011;885;42.626;23.200;2023-05-21T02:04:43;11.80;;;9.50;;
1775;SDS011;885;42.626;23.200;2023-05-21T02:07:14;10.30;;;9.10;;
1775;SDS011;885;42.626;23.200;2023-05-21T02:10:13;12.40;;;9.13;;
1775;SDS011;885;42.626;23.200;2023-05-21T02:12:44;10.43;;;9.53;;
1775;SDS011;885;42.626;23.200;2023-05-21T02:15:11;10.13;;;9.13;;
1775;SDS011;885;42.626;23.200;2023-05-21T02:17:41;10.97;;;9.70;;
1775;SDS011;885;42.626;23.200;2023-05-21T02:20:10;10.27;;;8.57;;
1775;SDS011;885;42.626;23.200;2023-05-21T02:23:01;12.47;;;9.67;;
1775;SDS011;885;42.626;23.200;2023-05-21T02:25:34;12.23;;;9.00;;
1775;SDS011;885;42.626;23.200;2023-05-21T02:28:02;11.80;;;9.63;;
1775;SDS011;885;42.626;23.200;2023-05-21T02:30:30;11.50;;;10.00;;
1775;SDS011;885;42.626;23.200;2023-05-21T02:33:01;11.67;;;10.27;;
1775;SDS011;885;42.626;23.200;2023-05-21T02:35:29;11.90;;;9.87;;
1775;SDS011;885;42.626;23.200;2023-05-21T02:38:57;11.00;;;10.00;;
1775;SDS011;885;42.626;23.200;2023-05-21T02:41:28;11.60;;;8.77;;
1775;SDS011;885;42.626;23.200;2023-05-21T02:44:52;10.00;;;8.17;;
1775;SDS011;885;42.626;23.200;2023-05-21T02:47:19;9.50;;;8.27;;
1775;SDS011;885;42.626;23.200;2023-05-21T02:50:07;9.73;;;8.73;;
1775;SDS011;885;42.626;23.200;2023-05-21T02:52:48;12.13;;;10.80;;
1775;SDS011;885;42.626;23.200;2023-05-21T02:56:13;12.40;;;10.90;;
1775;SDS011;885;42.626;23.200;2023-05-21T02:59:31;10.07;;;8.50;;
1775;SDS011;885;42.626;23.200;2023-05-21T03:02:57;12.47;;;10.20;;
1775;SDS011;885;42.626;23.200;2023-05-21T03:05:25;11.50;;;10.03;;
1775;SDS011;885;42.626;23.200;2023-05-21T03:07:53;10.63;;;9.53;;
1775;SDS011;885;42.626;23.200;2023-05-21T03:10:27;11.97;;;10.47;;
1775;SDS011;885;42.626;23.200;2023-05-21T03:12:59;16.67;;;11.73;;
1775;SDS011;885;42.626;23.200;2023-05-21T03:15:41;13.17;;;11.13;;
1775;SDS011;885;42.626;23.200;2023-05-21T03:18:08;11.90;;;10.70;;
1775;SDS011;885;42.626;23.200;2023-05-21T03:20:35;12.43;;;9.80;;
1775;SDS011;885;42.626;23.200;2023-05-21T03:23:18;10.00;;;8.40;;
1775;SDS011;885;42.626;23.200;2023-05-21T03:25:59;13.53;;;10.07;;
1775;SDS011;885;42.626;23.200;2023-05-21T03:28:28;12.60;;;9.43;;
1775;SDS011;885;42.626;23.200;2023-05-21T03:30:55;11.60;;;8.43;;
1775;SDS011;885;42.626;23.200;2023-05-21T03:33:45;10.37;;;8.50;;
1775;SDS011;885;42.626;23.200;2023-05-21T03:36:12;9.53;;;8.60;;
1775;SDS011;885;42.626;23.200;2023-05-21T03:38:40;10.57;;;9.27;;
1775;SDS011;885;42.626;23.200;2023-05-21T03:41:07;11.13;;;9.87;;
1775;SDS011;885;42.626;23.200;2023-05-21T03:43:39;10.03;;;9.03;;
1775;SDS011;885;42.626;23.200;2023-05-21T03:46:17;10.07;;;8.83;;
1775;SDS011;885;42.626;23.200;2023-05-21T03:48:51;10.23;;;8.53;;
1775;SDS011;885;42.626;23.200;2023-05-21T03:51:24;13.23;;;8.37;;
1775;SDS011;885;42.626;23.200;2023-05-21T03:53:56;14.97;;;9.50;;
1775;SDS011;885;42.626;23.200;2023-05-21T03:56:36;9.60;;;7.60;;
1775;SDS011;885;42.626;23.200;2023-05-21T03:59:04;10.00;;;8.80;;
1775;SDS011;885;42.626;23.200;2023-05-21T04:01:31;10.73;;;9.43;;
1775;SDS011;885;42.626;23.200;2023-05-21T04:04:03;11.43;;;9.60;;
1775;SDS011;885;42.626;23.200;2023-05-21T04:06:40;17.27;;;12.50;;
1775;SDS011;885;42.626;23.200;2023-05-21T04:09:23;11.50;;;10.40;;
1775;SDS011;885;42.626;23.200;2023-05-21T04:11:51;20.60;;;16.93;;
1775;SDS011;885;42.626;23.200;2023-05-21T04:14:20;16.80;;;13.30;;
1775;SDS011;885;42.626;23.200;2023-05-21T04:16:47;12.90;;;10.40;;
1775;SDS011;885;42.626;23.200;2023-05-21T04:19:14;11.23;;;9.80;;
1775;SDS011;885;42.626;23.200;2023-05-21T04:21:41;10.30;;;9.20;;
1775;SDS011;885;42.626;23.200;2023-05-21T04:24:11;12.50;;;11.30;;
1775;SDS011;885;42.626;23.200;2023-05-21T04:26:40;14.47;;;12.33;;
1775;SDS011;885;42.626;23.200;2023-05-21T04:29:07;14.87;;;12.10;;
1775;SDS011;885;42.626;23.200;2023-05-21T04:31:52;10.53;;;9.43;;
1775;SDS011;885;42.626;23.200;2023-05-21T04:34:22;11.93;;;10.73;;
1775;SDS011;885;42.626;23.200;2023-05-21T04:36:49;11.87;;;10.00;;
1775;SDS011;885;42.626;23.200;2023-05-21T04:39:16;12.00;;;9.70;;
1775;SDS011;885;42.626;23.200;2023-05-21T04:41:43;12.17;;;10.00;;
1775;SDS011;885;42.626;23.200;2023-05-21T04:44:13;11.73;;;10.30;;
1775;SDS011;885;42.626;23.200;2023-05-21T04:47:39;9.60;;;8.70;;
1775;SDS011;885;42.626;23.200;2023-05-21T04:51:05;23.03;;;17.60;;
1775;SDS011;885;42.626;23.200;2023-05-21T04:53:31;12.73;;;9.90;;
1775;SDS011;885;42.626;23.200;2023-05-21T04:56:19;9.40;;;8.50;;
1775;SDS011;885;42.626;23.200;2023-05-21T04:58:46;12.07;;;8.87;;
1775;SDS011;885;42.626;23.200;2023-05-21T05:01:14;10.23;;;7.90;;
1775;SDS011;885;42.626;23.200;2023-05-21T05:03:42;6.53;;;5.93;;
1775;SDS011;885;42.626;23.200;2023-05-21T05:06:11;9.30;;;7.23;;
1775;SDS011;885;42.626;23.200;2023-05-21T05:08:37;8.50;;;7.30;;
1775;SDS011;885;42.626;23.200;2023-05-21T05:11:04;8.97;;;8.03;;
1775;SDS011;885;42.626;23.200;2023-05-21T05:13:32;13.00;;;8.83;;
1775;SDS011;885;42.626;23.200;2023-05-21T05:15:59;8.73;;;7.87;;
1775;SDS011;885;42.626;23.200;2023-05-21T05:18:32;10.47;;;8.80;;
1775;SDS011;885;42.626;23.200;2023-05-21T05:21:00;12.13;;;8.97;;
1775;SDS011;885;42.626;23.200;2023-05-21T05:23:27;10.97;;;9.20;;
1775;SDS011;885;42.626;23.200;2023-05-21T05:25:54;10.90;;;8.57;;
1775;SDS011;885;42.626;23.200;2023-05-21T05:28:20;8.63;;;7.77;;
1775;SDS011;885;42.626;23.200;2023-05-21T05:30:47;11.57;;;10.37;;
1775;SDS011;885;42.626;23.200;2023-05-21T05:33:14;9.03;;;8.13;;
1775;SDS011;885;42.626;23.200;2023-05-21T05:36:41;9.83;;;8.80;;
1775;SDS011;885;42.626;23.200;2023-05-21T05:39:35;9.07;;;8.17;;
1775;SDS011;885;42.626;23.200;2023-05-21T05:42:04;12.30;;;8.60;;
1775;SDS011;885;42.626;23.200;2023-05-21T05:44:54;10.33;;;9.27;;
1775;SDS011;885;42.626;23.200;2023-05-21T05:47:43;13.80;;;9.60;;
1775;SDS011;885;42.626;23.200;2023-05-21T05:50:12;14.17;;;9.40;;
1775;SDS011;885;42.626;23.200;2023-05-21T05:53:23;10.80;;;8.93;;
1775;SDS011;885;42.626;23.200;2023-05-21T05:56:17;13.73;;;10.33;;
1775;SDS011;885;42.626;23.200;2023-05-21T05:58:44;10.50;;;9.50;;
1775;SDS011;885;42.626;23.200;2023-05-21T06:01:10;11.03;;;9.00;;
1775;SDS011;885;42.626;23.200;2023-05-21T06:03:37;10.77;;;9.67;;
1775;SDS011;885;42.626;23.200;2023-05-21T06:06:04;11.50;;;9.70;;
1775;SDS011;885;42.626;23.200;2023-05-21T06:08:32;9.20;;;8.00;;
1775;SDS011;885;42.626;23.200;2023-05-21T06:11:00;10.73;;;7.07;;
1775;SDS011;885;42.626;23.200;2023-05-21T06:13:26;11.53;;;7.77;;
1775;SDS011;885;42.626;23.200;2023-05-21T06:15:53;11.60;;;9.63;;
1775;SDS011;885;42.626;23.200;2023-05-21T06:18:20;10.33;;;7.00;;
1775;SDS011;885;42.626;23.200;2023-05-21T06:20:47;9.70;;;7.20;;
1775;SDS011;885;42.626;23.200;2023-05-21T06:23:14;6.70;;;6.00;;
1775;SDS011;885;42.626;23.200;2023-05-21T06:25:42;7.23;;;6.40;;
1775;SDS011;885;42.626;23.200;2023-05-21T06:28:09;9.50;;;5.80;;
1775;SDS011;885;42.626;23.200;2023-05-21T06:30:36;7.13;;;6.43;;
1775;SDS011;885;42.626;23.200;2023-05-21T06:33:35;13.30;;;6.30;;
1775;SDS011;885;42.626;23.200;2023-05-21T06:36:02;11.13;;;7.00;;
1775;SDS011;885;42.626;23.200;2023-05-21T06:38:29;11.90;;;6.20;;
1775;SDS011;885;42.626;23.200;2023-05-21T06:40:57;8.70;;;5.83;;
1775;SDS011;885;42.626;23.200;2023-05-21T06:43:24;6.50;;;5.53;;
1775;SDS011;885;42.626;23.200;2023-05-21T06:45:53;6.73;;;5.50;;
1775;SDS011;885;42.626;23.200;2023-05-21T06:48:21;7.30;;;6.60;;
1775;SDS011;885;42.626;23.200;2023-05-21T06:50:48;5.90;;;4.87;;
1775;SDS011;885;42.626;23.200;2023-05-21T06:53:15;10.00;;;5.13;;
1775;SDS011;885;42.626;23.200;2023-05-21T06:55:42;9.77;;;5.10;;
1775;SDS011;885;42.626;23.200;2023-05-21T06:58:12;7.30;;;4.90;;
1775;SDS011;885;42.626;23.200;2023-05-21T07:00:39;6.30;;;5.03;;
1775;SDS011;885;42.626;23.200;2023-05-21T07:03:06;8.30;;;5.30;;
1775;SDS011;885;42.626;23.200;2023-05-21T07:05:33;6.90;;;4.90;;
1775;SDS011;885;42.626;23.200;2023-05-21T07:08:03;6.30;;;5.50;;
1775;SDS011;885;42.626;23.200;2023-05-21T07:10:37;6.83;;;4.53;;
1775;SDS011;885;42.626;23.200;2023-05-21T07:13:06;5.73;;;4.80;;
1775;SDS011;885;42.626;23.200;2023-05-21T07:15:34;6.20;;;4.27;;
1775;SDS011;885;42.626;23.200;2023-05-21T07:18:01;6.50;;;5.77;;
1775;SDS011;885;42.626;23.200;2023-05-21T07:20:28;9.83;;;4.83;;
1775;SDS011;885;42.626;23.200;2023-05-21T07:22:54;8.70;;;5.23;;
1775;SDS011;885;42.626;23.200;2023-05-21T07:25:21;7.00;;;5.23;;
1775;SDS011;885;42.626;23.200;2023-05-21T07:27:50;7.00;;;4.70;;
1775;SDS011;885;42.626;23.200;2023-05-21T07:30:16;10.07;;;4.83;;
1775;SDS011;885;42.626;23.200;2023-05-21T07:32:45;6.57;;;4.77;;
1775;SDS011;885;42.626;23.200;2023-05-21T07:35:12;7.13;;;5.20;;
1775;SDS011;885;42.626;23.200;2023-05-21T07:37:38;6.73;;;5.27;;
1775;SDS011;885;42.626;23.200;2023-05-21T07:40:21;9.40;;;5.37;;
1775;SDS011;885;42.626;23.200;2023-05-21T07:42:50;7.97;;;5.33;;
1775;SDS011;885;42.626;23.200;2023-05-21T07:45:17;5.43;;;4.90;;
1775;SDS011;885;42.626;23.200;2023-05-21T07:47:45;6.90;;;5.27;;
1775;SDS011;885;42.626;23.200;2023-05-21T07:50:12;8.80;;;6.53;;
1775;SDS011;885;42.626;23.200;2023-05-21T07:52:39;12.40;;;11.20;;
1775;SDS011;885;42.626;23.200;2023-05-21T07:55:07;6.80;;;5.00;;
1775;SDS011;885;42.626;23.200;2023-05-21T07:57:34;5.37;;;4.27;;
1775;SDS011;885;42.626;23.200;2023-05-21T08:00:01;6.10;;;4.60;;
1775;SDS011;885;42.626;23.200;2023-05-21T08:02:28;5.33;;;4.83;;
1775;SDS011;885;42.626;23.200;2023-05-21T08:04:56;7.03;;;4.70;;
1775;SDS011;885;42.626;23.200;2023-05-21T08:07:23;5.53;;;4.50;;
1775;SDS011;885;42.626;23.200;2023-05-21T08:09:49;6.17;;;5.10;;
1775;SDS011;885;42.626;23.200;2023-05-21T08:12:18;6.23;;;5.20;;
1775;SDS011;885;42.626;23.200;2023-05-21T08:14:45;4.87;;;4.40;;
1775;SDS011;885;42.626;23.200;2023-05-21T08:17:11;6.03;;;4.80;;
1775;SDS011;885;42.626;23.200;2023-05-21T08:19:38;6.70;;;5.00;;
1775;SDS011;885;42.626;23.200;2023-05-21T08:22:07;8.83;;;5.03;;
1775;SDS011;885;42.626;23.200;2023-05-21T08:24:34;7.77;;;4.57;;
1775;SDS011;885;42.626;23.200;2023-05-21T08:27:01;6.10;;;4.67;;
1775;SDS011;885;42.626;23.200;2023-05-21T08:29:27;5.57;;;4.50;;
1775;SDS011;885;42.626;23.200;2023-05-21T08:31:54;7.80;;;4.77;;
1775;SDS011;885;42.626;23.200;2023-05-21T08:34:21;5.53;;;5.03;;
1775;SDS011;885;42.626;23.200;2023-05-21T08:36:48;6.23;;;4.70;;
1775;SDS011;885;42.626;23.200;2023-05-21T08:39:18;6.77;;;5.00;;
1775;SDS011;885;42.626;23.200;2023-05-21T08:41:45;4.63;;;4.17;;
1775;SDS011;885;42.626;23.200;2023-05-21T08:44:13;7.37;;;4.73;;
1775;SDS011;885;42.626;23.200;2023-05-21T08:46:40;8.13;;;5.00;;
1775;SDS011;885;42.626;23.200;2023-05-21T08:49:11;10.33;;;4.80;;
1775;SDS011;885;42.626;23.200;2023-05-21T08:51:38;4.87;;;4.37;;
1775;SDS011;885;42.626;23.200;2023-05-21T08:54:05;7.53;;;3.90;;
1775;SDS011;885;42.626;23.200;2023-05-21T08:56:34;5.20;;;4.70;;
1775;SDS011;885;42.626;23.200;2023-05-21T08:59:01;5.60;;;4.07;;
1775;SDS011;885;42.626;23.200;2023-05-21T09:01:27;6.50;;;4.67;;
1775;SDS011;885;42.626;23.200;2023-05-21T09:03:56;5.87;;;4.60;;
1775;SDS011;885;42.626;23.200;2023-05-21T09:06:23;5.80;;;4.63;;
1775;SDS011;885;42.626;23.200;2023-05-21T09:08:52;9.30;;;4.90;;
1775;SDS011;885;42.626;23.200;2023-05-21T09:11:24;6.93;;;4.40;;
1775;SDS011;885;42.626;23.200;2023-05-21T09:13:53;8.93;;;4.90;;
1775;SDS011;885;42.626;23.200;2023-05-21T09:16:21;8.17;;;5.50;;
1775;SDS011;885;42.626;23.200;2023-05-21T09:18:48;5.17;;;4.63;;
1775;SDS011;885;42.626;23.200;2023-05-21T09:21:24;9.10;;;4.87;;
1775;SDS011;885;42.626;23.200;2023-05-21T09:23:53;6.90;;;4.20;;
1775;SDS011;885;42.626;23.200;2023-05-21T09:26:20;7.27;;;5.33;;
1775;SDS011;885;42.626;23.200;2023-05-21T09:28:47;10.90;;;8.97;;
1775;SDS011;885;42.626;23.200;2023-05-21T09:31:16;8.53;;;5.47;;
1775;SDS011;885;42.626;23.200;2023-05-21T09:33:44;5.70;;;4.50;;
1775;SDS011;885;42.626;23.200;2023-05-21T09:36:12;12.87;;;4.50;;
1775;SDS011;885;42.626;23.200;2023-05-21T09:38:38;8.63;;;5.13;;
1775;SDS011;885;42.626;23.200;2023-05-21T09:41:05;26.63;;;13.03;;
1775;SDS011;885;42.626;23.200;2023-05-21T09:43:32;5.37;;;4.27;;
1775;SDS011;885;42.626;23.200;2023-05-21T09:45:59;9.00;;;4.77;;
1775;SDS011;885;42.626;23.200;2023-05-21T09:48:33;4.80;;;3.80;;
1775;SDS011;885;42.626;23.200;2023-05-21T09:51:07;8.23;;;4.37;;
1775;SDS011;885;42.626;23.200;2023-05-21T09:53:53;6.83;;;4.60;;
1775;SDS011;885;42.626;23.200;2023-05-21T09:56:22;11.43;;;5.53;;
1775;SDS011;885;42.626;23.200;2023-05-21T09:58:53;9.97;;;6.53;;
1775;SDS011;885;42.626;23.200;2023-05-21T10:01:20;29.63;;;10.17;;
1775;SDS011;885;42.626;23.200;2023-05-21T10:03:52;7.83;;;4.77;;
1775;SDS011;885;42.626;23.200;2023-05-21T10:06:22;26.33;;;10.97;;
1775;SDS011;885;42.626;23.200;2023-05-21T10:08:51;7.90;;;4.43;;
1775;SDS011;885;42.626;23.200;2023-05-21T10:11:20;6.87;;;4.13;;
1775;SDS011;885;42.626;23.200;2023-05-21T10:13:50;13.33;;;6.53;;
1775;SDS011;885;42.626;23.200;2023-05-21T10:16:22;12.83;;;6.20;;
1775;SDS011;885;42.626;23.200;2023-05-21T10:18:51;5.70;;;3.83;;
1775;SDS011;885;42.626;23.200;2023-05-21T10:21:20;6.13;;;4.07;;
1775;SDS011;885;42.626;23.200;2023-05-21T10:23:48;6.27;;;4.17;;
1775;SDS011;885;42.626;23.200;2023-05-21T10:26:16;8.00;;;4.50;;
1775;SDS011;885;42.626;23.200;2023-05-21T10:28:44;5.93;;;4.00;;
1775;SDS011;885;42.626;23.200;2023-05-21T10:31:11;11.50;;;4.80;;
1775;SDS011;885;42.626;23.200;2023-05-21T10:33:38;4.97;;;4.27;;
1775;SDS011;885;42.626;23.200;2023-05-21T10:36:07;6.30;;;4.63;;
1775;SDS011;885;42.626;23.200;2023-05-21T10:38:35;9.97;;;4.37;;
1775;SDS011;885;42.626;23.200;2023-05-21T10:41:03;6.37;;;4.00;;
1775;SDS011;885;42.626;23.200;2023-05-21T10:43:37;13.40;;;5.73;;
1775;SDS011;885;42.626;23.200;2023-05-21T10:46:14;6.90;;;4.30;;
1775;SDS011;885;42.626;23.200;2023-05-21T10:49:08;5.10;;;4.10;;
1775;SDS011;885;42.626;23.200;2023-05-21T10:51:53;5.30;;;3.80;;
1775;SDS011;885;42.626;23.200;2023-05-21T10:57:36;7.23;;;4.50;;
1775;SDS011;885;42.626;23.200;2023-05-21T11:00:16;5.87;;;4.00;;
1775;SDS011;885;42.626;23.200;2023-05-21T11:02:44;5.00;;;4.17;;
1775;SDS011;885;42.626;23.200;2023-05-21T11:05:12;6.10;;;4.77;;
1775;SDS011;885;42.626;23.200;2023-05-21T11:07:50;8.63;;;4.30;;
1775;SDS011;885;42.626;23.200;2023-05-21T11:10:29;7.90;;;4.80;;
1775;SDS011;885;42.626;23.200;2023-05-21T11:13:04;7.30;;;4.70;;
1775;SDS011;885;42.626;23.200;2023-05-21T11:21:27;5.53;;;4.60;;
1775;SDS011;885;42.626;23.200;2023-05-21T11:24:01;9.80;;;4.60;;
1775;SDS011;885;42.626;23.200;2023-05-21T11:29:30;8.43;;;4.53;;
1775;SDS011;885;42.626;23.200;2023-05-21T11:32:08;5.67;;;4.53;;
1775;SDS011;885;42.626;23.200;2023-05-21T11:34:37;5.90;;;4.43;;
1775;SDS011;885;42.626;23.200;2023-05-21T11:37:21;5.30;;;3.83;;
1775;SDS011;885;42.626;23.200;2023-05-21T11:39:53;5.03;;;4.53;;
1775;SDS011;885;42.626;23.200;2023-05-21T11:42:27;9.07;;;5.60;;
1775;SDS011;885;42.626;23.200;2023-05-21T11:44:56;5.03;;;4.50;;
1775;SDS011;885;42.626;23.200;2023-05-21T11:47:24;5.43;;;4.30;;
1775;SDS011;885;42.626;23.200;2023-05-21T11:49:52;9.97;;;5.53;;
1775;SDS011;885;42.626;23.200;2023-05-21T11:52:19;6.13;;;4.47;;
1775;SDS011;885;42.626;23.200;2023-05-21T11:54:47;6.73;;;5.00;;
1775;SDS011;885;42.626;23.200;2023-05-21T11:57:17;5.77;;;4.70;;
1775;SDS011;885;42.626;23.200;2023-05-21T11:59:44;8.90;;;5.50;;
1775;SDS011;885;42.626;23.200;2023-05-21T12:02:13;6.17;;;4.90;;
1775;SDS011;885;42.626;23.200;2023-05-21T12:04:41;6.70;;;4.83;;
1775;SDS011;885;42.626;23.200;2023-05-21T12:07:09;10.67;;;4.80;;
1775;SDS011;885;42.626;23.200;2023-05-21T12:09:37;7.93;;;5.00;;
1775;SDS011;885;42.626;23.200;2023-05-21T12:12:05;6.90;;;4.90;;
1775;SDS011;885;42.626;23.200;2023-05-21T12:14:35;10.10;;;4.73;;
1775;SDS011;885;42.626;23.200;2023-05-21T12:17:02;6.87;;;4.80;;
1775;SDS011;885;42.626;23.200;2023-05-21T12:19:31;5.67;;;4.50;;
1775;SDS011;885;42.626;23.200;2023-05-21T12:21:59;7.20;;;4.80;;
1775;SDS011;885;42.626;23.200;2023-05-21T12:24:27;4.50;;;4.10;;
1775;SDS011;885;42.626;23.200;2023-05-21T12:26:55;7.17;;;4.77;;
1775;SDS011;885;42.626;23.200;2023-05-21T12:29:24;6.83;;;4.80;;
1775;SDS011;885;42.626;23.200;2023-05-21T12:31:53;5.70;;;4.47;;
1775;SDS011;885;42.626;23.200;2023-05-21T12:34:41;8.60;;;5.27;;
1775;SDS011;885;42.626;23.200;2023-05-21T12:37:10;7.63;;;5.07;;
1775;SDS011;885;42.626;23.200;2023-05-21T12:39:38;6.60;;;4.60;;
1775;SDS011;885;42.626;23.200;2023-05-21T12:42:05;7.93;;;4.90;;
1775;SDS011;885;42.626;23.200;2023-05-21T12:44:32;6.33;;;5.17;;
1775;SDS011;885;42.626;23.200;2023-05-21T12:47:01;5.90;;;4.20;;
1775;SDS011;885;42.626;23.200;2023-05-21T12:49:34;10.67;;;4.63;;
1775;SDS011;885;42.626;23.200;2023-05-21T12:52:03;6.60;;;4.73;;
1775;SDS011;885;42.626;23.200;2023-05-21T12:54:31;5.30;;;4.73;;
1775;SDS011;885;42.626;23.200;2023-05-21T12:59:48;6.80;;;4.60;;
1775;SDS011;885;42.626;23.200;2023-05-21T13:02:21;6.73;;;4.53;;
1775;SDS011;885;42.626;23.200;2023-05-21T13:04:53;6.30;;;4.90;;
1775;SDS011;885;42.626;23.200;2023-05-21T13:07:21;6.37;;;5.00;;
1775;SDS011;885;42.626;23.200;2023-05-21T13:09:49;7.80;;;4.90;;
1775;SDS011;885;42.626;23.200;2023-05-21T13:12:17;7.40;;;5.80;;
1775;SDS011;885;42.626;23.200;2023-05-21T13:14:44;6.13;;;4.70;;
1775;SDS011;885;42.626;23.200;2023-05-21T13:17:11;8.87;;;5.33;;
1775;SDS011;885;42.626;23.200;2023-05-21T13:19:39;10.23;;;4.90;;
1775;SDS011;885;42.626;23.200;2023-05-21T13:22:06;6.53;;;4.70;;
1775;SDS011;885;42.626;23.200;2023-05-21T13:24:34;8.13;;;4.50;;
1775;SDS011;885;42.626;23.200;2023-05-21T13:27:01;9.27;;;4.40;;
1775;SDS011;885;42.626;23.200;2023-05-21T13:29:28;9.63;;;6.67;;
1775;SDS011;885;42.626;23.200;2023-05-21T13:31:55;7.07;;;5.20;;
1775;SDS011;885;42.626;23.200;2023-05-21T13:34:22;7.00;;;4.40;;
1775;SDS011;885;42.626;23.200;2023-05-21T13:36:51;5.03;;;4.20;;
1775;SDS011;885;42.626;23.200;2023-05-21T13:39:17;7.53;;;4.77;;
1775;SDS011;885;42.626;23.200;2023-05-21T13:41:50;6.03;;;4.70;;
1775;SDS011;885;42.626;23.200;2023-05-21T13:44:17;7.27;;;5.07;;
1775;SDS011;885;42.626;23.200;2023-05-21T13:46:44;7.20;;;5.03;;
1775;SDS011;885;42.626;23.200;2023-05-21T13:49:11;5.70;;;5.20;;
1775;SDS011;885;42.626;23.200;2023-05-21T13:51:37;6.83;;;4.80;;
1775;SDS011;885;42.626;23.200;2023-05-21T13:54:05;9.37;;;6.40;;
1775;SDS011;885;42.626;23.200;2023-05-21T13:56:32;5.57;;;4.73;;
1775;SDS011;885;42.626;23.200;2023-05-21T13:58:59;7.53;;;5.10;;
1775;SDS011;885;42.626;23.200;2023-05-21T14:01:26;5.30;;;4.80;;
1775;SDS011;885;42.626;23.200;2023-05-21T14:03:55;7.63;;;5.30;;
1775;SDS011;885;42.626;23.200;2023-05-21T14:06:22;6.70;;;5.20;;
1775;SDS011;885;42.626;23.200;2023-05-21T14:08:49;26.83;;;6.17;;
1775;SDS011;885;42.626;23.200;2023-05-21T14:11:17;14.80;;;6.20;;
1775;SDS011;885;42.626;23.200;2023-05-21T14:13:43;6.47;;;5.67;;
1775;SDS011;885;42.626;23.200;2023-05-21T14:16:11;7.90;;;5.20;;
1775;SDS011;885;42.626;23.200;2023-05-21T14:18:37;7.67;;;5.83;;
1775;SDS011;885;42.626;23.200;2023-05-21T14:21:04;8.83;;;5.80;;
1775;SDS011;885;42.626;23.200;2023-05-21T14:23:31;7.90;;;5.30;;
1775;SDS011;885;42.626;23.200;2023-05-21T14:25:57;6.10;;;4.87;;
1775;SDS011;885;42.626;23.200;2023-05-21T14:28:27;6.27;;;4.63;;
1775;SDS011;885;42.626;23.200;2023-05-21T14:30:54;5.20;;;4.70;;
1775;SDS011;885;42.626;23.200;2023-05-21T14:33:21;6.33;;;4.70;;
1775;SDS011;885;42.626;23.200;2023-05-21T14:35:48;7.63;;;4.53;;
1775;SDS011;885;42.626;23.200;2023-05-21T14:38:14;6.17;;;5.27;;
1775;SDS011;885;42.626;23.200;2023-05-21T14:40:41;5.63;;;4.57;;
1775;SDS011;885;42.626;23.200;2023-05-21T14:43:08;5.43;;;4.83;;
1775;SDS011;885;42.626;23.200;2023-05-21T14:45:36;5.80;;;4.70;;
1775;SDS011;885;42.626;23.200;2023-05-21T14:48:03;6.70;;;4.83;;
1775;SDS011;885;42.626;23.200;2023-05-21T14:50:32;11.20;;;6.80;;
1775;SDS011;885;42.626;23.200;2023-05-21T14:53:02;6.90;;;4.70;;
1775;SDS011;885;42.626;23.200;2023-05-21T14:55:29;6.87;;;5.00;;
1775;SDS011;885;42.626;23.200;2023-05-21T14:57:57;11.37;;;5.80;;
1775;SDS011;885;42.626;23.200;2023-05-21T15:00:24;5.67;;;5.17;;
1775;SDS011;885;42.626;23.200;2023-05-21T15:02:52;5.40;;;4.87;;
1775;SDS011;885;42.626;23.200;2023-05-21T15:05:19;6.30;;;3.93;;
1775;SDS011;885;42.626;23.200;2023-05-21T15:07:46;5.83;;;4.27;;
1775;SDS011;885;42.626;23.200;2023-05-21T15:10:12;10.13;;;5.97;;
1775;SDS011;885;42.626;23.200;2023-05-21T15:12:39;6.50;;;5.90;;
1775;SDS011;885;42.626;23.200;2023-05-21T15:15:06;5.70;;;4.80;;
1775;SDS011;885;42.626;23.200;2023-05-21T15:17:34;10.40;;;5.50;;
1775;SDS011;885;42.626;23.200;2023-05-21T15:20:03;7.47;;;4.60;;
1775;SDS011;885;42.626;23.200;2023-05-21T15:22:30;6.00;;;4.60;;
1775;SDS011;885;42.626;23.200;2023-05-21T15:24:57;5.40;;;4.90;;
1775;SDS011;885;42.626;23.200;2023-05-21T15:27:24;11.20;;;5.17;;
1775;SDS011;885;42.626;23.200;2023-05-21T15:29:51;4.93;;;4.43;;
1775;SDS011;885;42.626;23.200;2023-05-21T15:32:18;5.80;;;4.50;;
1775;SDS011;885;42.626;23.200;2023-05-21T15:34:45;6.73;;;5.30;;
1775;SDS011;885;42.626;23.200;2023-05-21T15:37:14;7.70;;;4.30;;
1775;SDS011;885;42.626;23.200;2023-05-21T15:39:41;8.30;;;5.20;;
1775;SDS011;885;42.626;23.200;2023-05-21T15:42:08;5.67;;;5.13;;
1775;SDS011;885;42.626;23.200;2023-05-21T15:44:36;9.37;;;5.23;;